sensor_id;sensor_type;location;lat;lon;timestamp;temperature;humidity
20035;DHT22;10178;48.034;9.800;2022-08-21T00:02:02;17.20;99.90
20035;DHT22;10178;48.034;9.800;2022-08-21T00:04:28;17.20;99.90
20035;DHT22;10178;48.034;9.800;2022-08-21T00:06:54;17.40;99.90
20035;DHT22;10178;48.034;9.800;2022-08-21T00:09:20;17.60;99.90
20035;DHT22;10178;48.034;9.800;2022-08-21T00:11:45;17.90;99.90
20035;DHT22;10178;48.034;9.800;2022-08-21T00:14:12;18.20;99.90
20035;DHT22;10178;48.034;9.800;2022-08-21T00:16:38;18.40;99.90
20035;DHT22;10178;48.034;9.800;2022-08-21T00:19:04;18.50;99.90
20035;DHT22;10178;48.034;9.800;2022-08-21T00:21:32;18.30;99.90
20035;DHT22;10178;48.034;9.800;2022-08-21T00:23:57;18.30;99.90
20035;DHT22;10178;48.034;9.800;2022-08-21T00:26:23;18.30;99.90
20035;DHT22;10178;48.034;9.800;2022-08-21T00:32:11;18.50;99.90
20035;DHT22;10178;48.034;9.800;2022-08-21T00:34:36;18.70;99.90
20035;DHT22;10178;48.034;9.800;2022-08-21T00:37:02;18.90;99.90
20035;DHT22;10178;48.034;9.800;2022-08-21T00:39:27;18.90;99.90
20035;DHT22;10178;48.034;9.800;2022-08-21T00:41:53;18.80;99.90
20035;DHT22;10178;48.034;9.800;2022-08-21T00:44:19;18.80;99.90
20035;DHT22;10178;48.034;9.800;2022-08-21T00:46:44;18.70;99.90
20035;DHT22;10178;48.034;9.800;2022-08-21T00:49:12;18.10;99.90
20035;DHT22;10178;48.034;9.800;2022-08-21T00:51:51;17.40;99.90
20035;DHT22;10178;48.034;9.800;2022-08-21T00:54:21;16.90;99.90
20035;DHT22;10178;48.034;9.800;2022-08-21T00:57:07;16.50;99.90
20035;DHT22;10178;48.034;9.800;2022-08-21T01:02:29;15.90;99.90
20035;DHT22;10178;48.034;9.800;2022-08-21T01:04:56;15.90;99.90
20035;DHT22;10178;48.034;9.800;2022-08-21T01:07:22;16.20;99.90
20035;DHT22;10178;48.034;9.800;2022-08-21T01:09:48;16.60;99.90
20035;DHT22;10178;48.034;9.800;2022-08-21T01:12:14;17.20;99.90
20035;DHT22;10178;48.034;9.800;2022-08-21T01:14:41;17.40;99.90
20035;DHT22;10178;48.034;9.800;2022-08-21T01:17:08;17.70;99.90
20035;DHT22;10178;48.034;9.800;2022-08-21T01:19:35;17.90;99.90
20035;DHT22;10178;48.034;9.800;2022-08-21T01:22:01;18.20;99.90
20035;DHT22;10178;48.034;9.800;2022-08-21T01:24:27;18.40;99.90
20035;DHT22;10178;48.034;9.800;2022-08-21T01:26:53;18.50;99.90
20035;DHT22;10178;48.034;9.800;2022-08-21T01:29:39;18.50;99.90
20035;DHT22;10178;48.034;9.800;2022-08-21T01:32:10;17.90;99.90
20035;DHT22;10178;48.034;9.800;2022-08-21T01:34:40;17.50;99.90
20035;DHT22;10178;48.034;9.800;2022-08-21T01:37:06;16.40;99.90
20035;DHT22;10178;48.034;9.800;2022-08-21T01:39:32;15.80;99.90
20035;DHT22;10178;48.034;9.800;2022-08-21T01:41:57;15.60;99.90
20035;DHT22;10178;48.034;9.800;2022-08-21T01:44:24;15.70;99.90
20035;DHT22;10178;48.034;9.800;2022-08-21T01:46:51;15.40;99.90
20035;DHT22;10178;48.034;9.800;2022-08-21T01:49:17;15.00;99.90
20035;DHT22;10178;48.034;9.800;2022-08-21T01:51:43;14.80;99.90
20035;DHT22;10178;48.034;9.800;2022-08-21T01:54:08;14.90;99.90
20035;DHT22;10178;48.034;9.800;2022-08-21T01:56:46;14.80;99.90
20035;DHT22;10178;48.034;9.800;2022-08-21T01:59:43;14.80;99.90
20035;DHT22;10178;48.034;9.800;2022-08-21T02:02:09;14.90;99.90
20035;DHT22;10178;48.034;9.800;2022-08-21T02:04:35;15.10;99.90
20035;DHT22;10178;48.034;9.800;2022-08-21T02:07:01;15.20;99.90
20035;DHT22;10178;48.034;9.800;2022-08-21T02:09:27;15.10;99.90
20035;DHT22;10178;48.034;9.800;2022-08-21T02:11:54;15.40;99.90
20035;DHT22;10178;48.034;9.800;2022-08-21T02:14:20;15.40;99.90
20035;DHT22;10178;48.034;9.800;2022-08-21T02:16:46;15.20;99.90
20035;DHT22;10178;48.034;9.800;2022-08-21T02:19:14;15.10;99.90
20035;DHT22;10178;48.034;9.800;2022-08-21T02:21:40;15.20;99.90
20035;DHT22;10178;48.034;9.800;2022-08-21T02:24:06;15.70;99.90
20035;DHT22;10178;48.034;9.800;2022-08-21T02:26:32;16.20;99.90
20035;DHT22;10178;48.034;9.800;2022-08-21T02:28:58;16.30;99.90
20035;DHT22;10178;48.034;9.800;2022-08-21T02:31:24;16.80;99.90
20035;DHT22;10178;48.034;9.800;2022-08-21T02:33:50;17.30;99.90
20035;DHT22;10178;48.034;9.800;2022-08-21T02:36:16;17.60;99.90
20035;DHT22;10178;48.034;9.800;2022-08-21T02:38:43;17.90;99.90
20035;DHT22;10178;48.034;9.800;2022-08-21T02:41:15;18.00;99.90
20035;DHT22;10178;48.034;9.800;2022-08-21T02:43:41;18.10;99.90
20035;DHT22;10178;48.034;9.800;2022-08-21T02:46:08;18.20;99.90
20035;DHT22;10178;48.034;9.800;2022-08-21T02:48:35;18.20;99.90
20035;DHT22;10178;48.034;9.800;2022-08-21T02:51:05;18.20;99.90
20035;DHT22;10178;48.034;9.800;2022-08-21T02:53:31;18.30;99.90
20035;DHT22;10178;48.034;9.800;2022-08-21T02:56:02;18.30;99.90
20035;DHT22;10178;48.034;9.800;2022-08-21T02:58:32;18.30;99.90
20035;DHT22;10178;48.034;9.800;2022-08-21T03:00:59;18.30;99.90
20035;DHT22;10178;48.034;9.800;2022-08-21T03:03:26;17.80;99.90
20035;DHT22;10178;48.034;9.800;2022-08-21T03:05:52;17.30;99.90
20035;DHT22;10178;48.034;9.800;2022-08-21T03:08:19;17.20;99.90
20035;DHT22;10178;48.034;9.800;2022-08-21T03:10:49;16.70;99.90
20035;DHT22;10178;48.034;9.800;2022-08-21T03:13:16;16.20;99.90
20035;DHT22;10178;48.034;9.800;2022-08-21T03:15:43;16.50;99.90
20035;DHT22;10178;48.034;9.800;2022-08-21T03:18:10;16.40;99.90
20035;DHT22;10178;48.034;9.800;2022-08-21T03:20:37;16.70;99.90
20035;DHT22;10178;48.034;9.800;2022-08-21T03:23:04;16.80;99.90
20035;DHT22;10178;48.034;9.800;2022-08-21T03:25:31;16.80;99.90
20035;DHT22;10178;48.034;9.800;2022-08-21T03:27:58;16.70;99.90
20035;DHT22;10178;48.034;9.800;2022-08-21T03:30:24;16.30;99.90
20035;DHT22;10178;48.034;9.800;2022-08-21T03:32:50;16.70;99.90
20035;DHT22;10178;48.034;9.800;2022-08-21T03:35:17;16.60;99.90
20035;DHT22;10178;48.034;9.800;2022-08-21T03:37:43;16.50;99.90
20035;DHT22;10178;48.034;9.800;2022-08-21T03:40:10;16.10;99.90
20035;DHT22;10178;48.034;9.800;2022-08-21T03:42:37;15.60;99.90
20035;DHT22;10178;48.034;9.800;2022-08-21T03:45:03;15.60;99.90
20035;DHT22;10178;48.034;9.800;2022-08-21T03:47:29;15.60;99.90
20035;DHT22;10178;48.034;9.800;2022-08-21T03:49:55;15.60;99.90
20035;DHT22;10178;48.034;9.800;2022-08-21T03:52:21;15.50;99.90
20035;DHT22;10178;48.034;9.800;2022-08-21T03:54:47;15.40;99.90
20035;DHT22;10178;48.034;9.800;2022-08-21T03:57:13;15.70;99.90
20035;DHT22;10178;48.034;9.800;2022-08-21T03:59:38;16.10;99.90
20035;DHT22;10178;48.034;9.800;2022-08-21T04:02:06;16.30;99.90
20035;DHT22;10178;48.034;9.800;2022-08-21T04:04:32;16.70;99.90
20035;DHT22;10178;48.034;9.800;2022-08-21T04:06:58;17.00;99.90
20035;DHT22;10178;48.034;9.800;2022-08-21T04:09:25;17.10;99.90
20035;DHT22;10178;48.034;9.800;2022-08-21T04:11:51;17.00;99.90
20035;DHT22;10178;48.034;9.800;2022-08-21T04:14:18;16.40;99.90
20035;DHT22;10178;48.034;9.800;2022-08-21T04:16:44;15.90;99.90
20035;DHT22;10178;48.034;9.800;2022-08-21T04:19:10;15.80;99.90
20035;DHT22;10178;48.034;9.800;2022-08-21T04:21:37;15.90;99.90
20035;DHT22;10178;48.034;9.800;2022-08-21T04:24:04;15.90;99.90
20035;DHT22;10178;48.034;9.800;2022-08-21T04:26:30;15.90;99.90
20035;DHT22;10178;48.034;9.800;2022-08-21T04:28:57;16.00;99.90
20035;DHT22;10178;48.034;9.800;2022-08-21T04:31:24;16.10;99.90
20035;DHT22;10178;48.034;9.800;2022-08-21T04:33:50;16.40;99.90
20035;DHT22;10178;48.034;9.800;2022-08-21T04:36:16;16.90;99.90
20035;DHT22;10178;48.034;9.800;2022-08-21T04:38:42;17.20;99.90
20035;DHT22;10178;48.034;9.800;2022-08-21T04:41:07;17.10;99.90
20035;DHT22;10178;48.034;9.800;2022-08-21T04:43:33;17.20;99.90
20035;DHT22;10178;48.034;9.800;2022-08-21T04:45:59;17.40;99.90
20035;DHT22;10178;48.034;9.800;2022-08-21T04:48:26;17.50;99.90
20035;DHT22;10178;48.034;9.800;2022-08-21T04:51:01;17.70;99.90
20035;DHT22;10178;48.034;9.800;2022-08-21T04:53:35;17.90;99.90
20035;DHT22;10178;48.034;9.800;2022-08-21T04:56:05;18.00;99.90
20035;DHT22;10178;48.034;9.800;2022-08-21T04:58:34;18.10;99.90
20035;DHT22;10178;48.034;9.800;2022-08-21T05:01:02;18.10;99.90
20035;DHT22;10178;48.034;9.800;2022-08-21T05:03:30;18.00;99.90
20035;DHT22;10178;48.034;9.800;2022-08-21T05:05:59;18.10;99.90
20035;DHT22;10178;48.034;9.800;2022-08-21T05:08:27;17.80;99.90
20035;DHT22;10178;48.034;9.800;2022-08-21T05:10:54;18.00;99.90
20035;DHT22;10178;48.034;9.800;2022-08-21T05:13:20;18.10;99.90
20035;DHT22;10178;48.034;9.800;2022-08-21T05:15:46;18.10;99.90
20035;DHT22;10178;48.034;9.800;2022-08-21T05:18:12;18.10;99.90
20035;DHT22;10178;48.034;9.800;2022-08-21T05:20:37;18.20;99.90
20035;DHT22;10178;48.034;9.800;2022-08-21T05:23:08;18.00;99.90
20035;DHT22;10178;48.034;9.800;2022-08-21T05:25:34;18.00;99.90
20035;DHT22;10178;48.034;9.800;2022-08-21T05:28:00;18.00;99.90
20035;DHT22;10178;48.034;9.800;2022-08-21T05:30:26;18.10;99.90
20035;DHT22;10178;48.034;9.800;2022-08-21T05:32:59;17.90;99.90
20035;DHT22;10178;48.034;9.800;2022-08-21T05:35:27;17.90;99.90
20035;DHT22;10178;48.034;9.800;2022-08-21T05:37:53;17.50;99.90
20035;DHT22;10178;48.034;9.800;2022-08-21T05:40:19;17.30;99.90
20035;DHT22;10178;48.034;9.800;2022-08-21T05:42:45;17.30;99.90
20035;DHT22;10178;48.034;9.800;2022-08-21T05:45:11;17.30;99.90
20035;DHT22;10178;48.034;9.800;2022-08-21T05:47:37;17.30;99.90
20035;DHT22;10178;48.034;9.800;2022-08-21T05:50:03;17.50;99.90
20035;DHT22;10178;48.034;9.800;2022-08-21T05:52:29;17.00;99.90
20035;DHT22;10178;48.034;9.800;2022-08-21T05:54:55;17.00;99.90
20035;DHT22;10178;48.034;9.800;2022-08-21T05:57:21;17.40;99.90
20035;DHT22;10178;48.034;9.800;2022-08-21T05:59:47;17.20;99.90
20035;DHT22;10178;48.034;9.800;2022-08-21T06:02:13;17.20;99.90
20035;DHT22;10178;48.034;9.800;2022-08-21T06:04:39;17.50;99.90
20035;DHT22;10178;48.034;9.800;2022-08-21T06:07:05;17.60;99.90
20035;DHT22;10178;48.034;9.800;2022-08-21T06:09:31;17.80;99.90
20035;DHT22;10178;48.034;9.800;2022-08-21T06:11:57;18.00;99.90
20035;DHT22;10178;48.034;9.800;2022-08-21T06:14:23;17.90;99.90
20035;DHT22;10178;48.034;9.800;2022-08-21T06:16:49;18.20;99.90
20035;DHT22;10178;48.034;9.800;2022-08-21T06:19:14;18.30;99.90
20035;DHT22;10178;48.034;9.800;2022-08-21T06:21:40;18.40;99.90
20035;DHT22;10178;48.034;9.800;2022-08-21T06:24:06;18.40;99.90
20035;DHT22;10178;48.034;9.800;2022-08-21T06:26:32;18.40;99.90
20035;DHT22;10178;48.034;9.800;2022-08-21T06:28:58;17.90;99.90
20035;DHT22;10178;48.034;9.800;2022-08-21T06:31:25;17.80;99.90
20035;DHT22;10178;48.034;9.800;2022-08-21T06:33:52;17.70;99.90
20035;DHT22;10178;48.034;9.800;2022-08-21T06:36:18;17.30;99.90
20035;DHT22;10178;48.034;9.800;2022-08-21T06:38:43;17.30;99.90
20035;DHT22;10178;48.034;9.800;2022-08-21T06:41:10;17.40;99.90
20035;DHT22;10178;48.034;9.800;2022-08-21T06:43:36;17.50;99.90
20035;DHT22;10178;48.034;9.800;2022-08-21T06:46:02;17.90;99.90
20035;DHT22;10178;48.034;9.800;2022-08-21T06:48:27;17.80;99.90
20035;DHT22;10178;48.034;9.800;2022-08-21T06:50:55;17.50;99.90
20035;DHT22;10178;48.034;9.800;2022-08-21T06:53:21;17.20;99.90
20035;DHT22;10178;48.034;9.800;2022-08-21T06:55:48;17.50;99.90
20035;DHT22;10178;48.034;9.800;2022-08-21T06:58:14;17.50;99.90
20035;DHT22;10178;48.034;9.800;2022-08-21T07:00:45;16.80;99.90
20035;DHT22;10178;48.034;9.800;2022-08-21T07:03:31;16.80;99.90
20035;DHT22;10178;48.034;9.800;2022-08-21T07:05:57;17.00;99.90
20035;DHT22;10178;48.034;9.800;2022-08-21T07:08:24;17.50;99.90
20035;DHT22;10178;48.034;9.800;2022-08-21T07:10:51;17.90;99.90
20035;DHT22;10178;48.034;9.800;2022-08-21T07:13:17;18.30;99.90
20035;DHT22;10178;48.034;9.800;2022-08-21T07:15:43;18.60;99.90
20035;DHT22;10178;48.034;9.800;2022-08-21T07:18:10;18.80;99.90
20035;DHT22;10178;48.034;9.800;2022-08-21T07:20:37;18.90;99.90
20035;DHT22;10178;48.034;9.800;2022-08-21T07:23:06;19.00;99.90
20035;DHT22;10178;48.034;9.800;2022-08-21T07:25:32;18.40;99.90
20035;DHT22;10178;48.034;9.800;2022-08-21T07:27:58;18.40;99.90
20035;DHT22;10178;48.034;9.800;2022-08-21T07:30:24;18.60;99.90
20035;DHT22;10178;48.034;9.800;2022-08-21T07:32:50;18.90;99.90
20035;DHT22;10178;48.034;9.800;2022-08-21T07:35:17;19.00;99.90
20035;DHT22;10178;48.034;9.800;2022-08-21T07:37:43;19.00;99.90
20035;DHT22;10178;48.034;9.800;2022-08-21T07:40:08;19.10;99.90
20035;DHT22;10178;48.034;9.800;2022-08-21T07:42:34;19.10;99.90
20035;DHT22;10178;48.034;9.800;2022-08-21T07:45:05;19.30;99.90
20035;DHT22;10178;48.034;9.800;2022-08-21T07:47:30;19.60;99.90
20035;DHT22;10178;48.034;9.800;2022-08-21T07:49:56;19.80;99.90
20035;DHT22;10178;48.034;9.800;2022-08-21T07:52:22;20.00;99.90
20035;DHT22;10178;48.034;9.800;2022-08-21T07:54:48;20.10;99.90
20035;DHT22;10178;48.034;9.800;2022-08-21T07:57:13;20.10;99.90
20035;DHT22;10178;48.034;9.800;2022-08-21T07:59:39;20.20;99.90
20035;DHT22;10178;48.034;9.800;2022-08-21T08:02:05;20.30;99.90
20035;DHT22;10178;48.034;9.800;2022-08-21T08:04:30;20.50;99.90
20035;DHT22;10178;48.034;9.800;2022-08-21T08:06:56;20.40;99.90
20035;DHT22;10178;48.034;9.800;2022-08-21T08:09:21;20.50;99.90
20035;DHT22;10178;48.034;9.800;2022-08-21T08:11:47;20.80;99.90
20035;DHT22;10178;48.034;9.800;2022-08-21T08:14:13;20.90;99.90
20035;DHT22;10178;48.034;9.800;2022-08-21T08:16:39;21.10;99.90
20035;DHT22;10178;48.034;9.800;2022-08-21T08:19:04;21.20;99.90
20035;DHT22;10178;48.034;9.800;2022-08-21T08:21:30;21.20;99.90
20035;DHT22;10178;48.034;9.800;2022-08-21T08:23:57;21.30;99.90
20035;DHT22;10178;48.034;9.800;2022-08-21T08:26:23;21.20;99.90
20035;DHT22;10178;48.034;9.800;2022-08-21T08:28:48;21.30;99.90
20035;DHT22;10178;48.034;9.800;2022-08-21T08:31:14;21.40;99.90
20035;DHT22;10178;48.034;9.800;2022-08-21T08:33:40;21.60;99.90
20035;DHT22;10178;48.034;9.800;2022-08-21T08:36:13;21.70;99.90
20035;DHT22;10178;48.034;9.800;2022-08-21T08:38:39;21.60;99.90
20035;DHT22;10178;48.034;9.800;2022-08-21T08:43:39;21.80;99.90
20035;DHT22;10178;48.034;9.800;2022-08-21T08:46:13;21.90;99.90
20035;DHT22;10178;48.034;9.800;2022-08-21T08:54:26;22.30;99.90
20035;DHT22;10178;48.034;9.800;2022-08-21T08:56:59;22.40;99.90
20035;DHT22;10178;48.034;9.800;2022-08-21T08:59:47;22.60;99.90
20035;DHT22;10178;48.034;9.800;2022-08-21T09:02:16;22.90;99.90
20035;DHT22;10178;48.034;9.800;2022-08-21T09:04:42;23.20;99.90
20035;DHT22;10178;48.034;9.800;2022-08-21T09:15:16;23.50;99.90
20035;DHT22;10178;48.034;9.800;2022-08-21T09:20:28;23.40;99.90
20035;DHT22;10178;48.034;9.800;2022-08-21T09:28:15;22.40;99.90
20035;DHT22;10178;48.034;9.800;2022-08-21T09:30:41;22.50;99.90
20035;DHT22;10178;48.034;9.800;2022-08-21T09:33:09;23.00;99.90
20035;DHT22;10178;48.034;9.800;2022-08-21T09:35:36;23.10;99.90
20035;DHT22;10178;48.034;9.800;2022-08-21T09:38:23;23.00;99.90
20035;DHT22;10178;48.034;9.800;2022-08-21T09:40:57;22.80;99.90
20035;DHT22;10178;48.034;9.800;2022-08-21T09:43:23;22.60;99.90
20035;DHT22;10178;48.034;9.800;2022-08-21T09:46:09;22.70;99.90
20035;DHT22;10178;48.034;9.800;2022-08-21T09:48:47;22.80;99.90
20035;DHT22;10178;48.034;9.800;2022-08-21T09:51:19;22.70;99.90
20035;DHT22;10178;48.034;9.800;2022-08-21T09:53:56;22.70;99.90
20035;DHT22;10178;48.034;9.800;2022-08-21T09:56:30;22.70;99.90
20035;DHT22;10178;48.034;9.800;2022-08-21T09:59:24;22.70;99.90
20035;DHT22;10178;48.034;9.800;2022-08-21T10:01:51;22.70;99.90
20035;DHT22;10178;48.034;9.800;2022-08-21T10:04:34;22.50;99.90
20035;DHT22;10178;48.034;9.800;2022-08-21T10:07:12;22.40;99.90
20035;DHT22;10178;48.034;9.800;2022-08-21T10:09:38;22.20;99.90
20035;DHT22;10178;48.034;9.800;2022-08-21T10:18:29;21.90;99.90
20035;DHT22;10178;48.034;9.800;2022-08-21T10:23:43;22.50;99.90
20035;DHT22;10178;48.034;9.800;2022-08-21T10:29:35;23.30;99.90
20035;DHT22;10178;48.034;9.800;2022-08-21T10:48:45;22.70;99.90
20035;DHT22;10178;48.034;9.800;2022-08-21T10:51:40;22.80;99.90
20035;DHT22;10178;48.034;9.800;2022-08-21T10:56:50;22.70;99.90
20035;DHT22;10178;48.034;9.800;2022-08-21T10:59:30;22.40;99.90
20035;DHT22;10178;48.034;9.800;2022-08-21T11:07:37;22.60;99.90
20035;DHT22;10178;48.034;9.800;2022-08-21T11:10:42;22.50;99.90
20035;DHT22;10178;48.034;9.800;2022-08-21T11:13:17;22.20;99.90
20035;DHT22;10178;48.034;9.800;2022-08-21T11:15:58;22.30;99.90
20035;DHT22;10178;48.034;9.800;2022-08-21T11:18:28;22.60;99.90
20035;DHT22;10178;48.034;9.800;2022-08-21T11:23:44;23.60;99.90
20035;DHT22;10178;48.034;9.800;2022-08-21T11:26:38;23.70;99.90
20035;DHT22;10178;48.034;9.800;2022-08-21T11:29:19;23.50;99.90
20035;DHT22;10178;48.034;9.800;2022-08-21T11:43:48;23.10;99.90
20035;DHT22;10178;48.034;9.800;2022-08-21T11:45:56;23.50;99.90
20035;DHT22;10178;48.034;9.800;2022-08-21T11:48:45;23.20;99.90
20035;DHT22;10178;48.034;9.800;2022-08-21T11:51:22;22.90;99.90
20035;DHT22;10178;48.034;9.800;2022-08-21T11:54:02;22.70;99.90
20035;DHT22;10178;48.034;9.800;2022-08-21T11:56:41;22.60;99.90
20035;DHT22;10178;48.034;9.800;2022-08-21T11:59:16;22.60;99.90
20035;DHT22;10178;48.034;9.800;2022-08-21T12:01:47;23.10;99.90
20035;DHT22;10178;48.034;9.800;2022-08-21T12:04:29;23.40;99.90
20035;DHT22;10178;48.034;9.800;2022-08-21T12:06:55;23.60;99.90
20035;DHT22;10178;48.034;9.800;2022-08-21T12:12:09;23.50;99.90
20035;DHT22;10178;48.034;9.800;2022-08-21T12:14:47;23.30;99.90
20035;DHT22;10178;48.034;9.800;2022-08-21T12:17:26;23.20;99.90
20035;DHT22;10178;48.034;9.800;2022-08-21T12:20:02;23.20;99.90
20035;DHT22;10178;48.034;9.800;2022-08-21T12:22:40;23.10;99.90
20035;DHT22;10178;48.034;9.800;2022-08-21T12:25:10;22.90;99.90
20035;DHT22;10178;48.034;9.800;2022-08-21T12:28:06;22.80;99.90
20035;DHT22;10178;48.034;9.800;2022-08-21T12:30:33;23.10;99.90
20035;DHT22;10178;48.034;9.800;2022-08-21T12:33:23;23.10;99.90
20035;DHT22;10178;48.034;9.800;2022-08-21T12:35:48;23.10;99.90
20035;DHT22;10178;48.034;9.800;2022-08-21T12:41:16;23.30;99.90
20035;DHT22;10178;48.034;9.800;2022-08-21T12:44:05;23.50;99.90
20035;DHT22;10178;48.034;9.800;2022-08-21T12:46:37;23.40;99.90
20035;DHT22;10178;48.034;9.800;2022-08-21T12:49:28;23.40;99.90
20035;DHT22;10178;48.034;9.800;2022-08-21T12:52:32;23.40;99.90
20035;DHT22;10178;48.034;9.800;2022-08-21T12:54:58;23.30;99.90
20035;DHT22;10178;48.034;9.800;2022-08-21T12:57:27;23.20;99.90
20035;DHT22;10178;48.034;9.800;2022-08-21T12:59:55;23.10;99.90
20035;DHT22;10178;48.034;9.800;2022-08-21T13:02:43;23.00;99.90
20035;DHT22;10178;48.034;9.800;2022-08-21T13:05:15;23.00;99.90
20035;DHT22;10178;48.034;9.800;2022-08-21T13:07:46;22.90;99.90
20035;DHT22;10178;48.034;9.800;2022-08-21T13:10:22;22.70;99.90
20035;DHT22;10178;48.034;9.800;2022-08-21T13:12:49;22.50;99.90
20035;DHT22;10178;48.034;9.800;2022-08-21T13:15:23;22.20;99.90
20035;DHT22;10178;48.034;9.800;2022-08-21T13:17:50;22.10;99.90
20035;DHT22;10178;48.034;9.800;2022-08-21T13:20:22;22.10;99.90
20035;DHT22;10178;48.034;9.800;2022-08-21T13:22:48;22.10;99.90
20035;DHT22;10178;48.034;9.800;2022-08-21T13:25:17;22.20;99.90
20035;DHT22;10178;48.034;9.800;2022-08-21T13:27:55;22.40;99.90
20035;DHT22;10178;48.034;9.800;2022-08-21T13:30:23;22.30;99.90
20035;DHT22;10178;48.034;9.800;2022-08-21T13:32:57;22.20;99.90
20035;DHT22;10178;48.034;9.800;2022-08-21T13:35:48;22.20;99.90
20035;DHT22;10178;48.034;9.800;2022-08-21T13:38:20;22.20;99.90
20035;DHT22;10178;48.034;9.800;2022-08-21T13:40:49;22.30;99.90
20035;DHT22;10178;48.034;9.800;2022-08-21T13:43:19;22.40;99.90
20035;DHT22;10178;48.034;9.800;2022-08-21T13:45:51;22.40;99.90
20035;DHT22;10178;48.034;9.800;2022-08-21T13:48:17;22.40;99.90
20035;DHT22;10178;48.034;9.800;2022-08-21T13:50:44;22.50;99.90
20035;DHT22;10178;48.034;9.800;2022-08-21T13:58:51;22.40;99.90
20035;DHT22;10178;48.034;9.800;2022-08-21T14:04:33;22.50;99.90
20035;DHT22;10178;48.034;9.800;2022-08-21T14:07:00;22.50;99.90
20035;DHT22;10178;48.034;9.800;2022-08-21T14:09:39;22.50;99.90
20035;DHT22;10178;48.034;9.800;2022-08-21T14:12:26;22.40;99.90
20035;DHT22;10178;48.034;9.800;2022-08-21T14:14:53;22.40;99.90
20035;DHT22;10178;48.034;9.800;2022-08-21T14:17:35;22.40;99.90
20035;DHT22;10178;48.034;9.800;2022-08-21T14:20:03;22.50;99.90
20035;DHT22;10178;48.034;9.800;2022-08-21T14:22:32;22.60;99.90
20035;DHT22;10178;48.034;9.800;2022-08-21T14:25:04;22.60;99.90
20035;DHT22;10178;48.034;9.800;2022-08-21T14:27:33;22.60;99.90
20035;DHT22;10178;48.034;9.800;2022-08-21T14:30:03;22.60;99.90
20035;DHT22;10178;48.034;9.800;2022-08-21T14:32:38;22.60;99.90
20035;DHT22;10178;48.034;9.800;2022-08-21T14:35:04;22.70;99.90
20035;DHT22;10178;48.034;9.800;2022-08-21T14:37:30;22.70;99.90
20035;DHT22;10178;48.034;9.800;2022-08-21T14:39:56;22.90;99.90
20035;DHT22;10178;48.034;9.800;2022-08-21T14:42:21;22.90;99.90
20035;DHT22;10178;48.034;9.800;2022-08-21T14:44:47;23.00;99.90
20035;DHT22;10178;48.034;9.800;2022-08-21T14:47:13;23.10;99.90
20035;DHT22;10178;48.034;9.800;2022-08-21T14:49:38;23.10;99.90
20035;DHT22;10178;48.034;9.800;2022-08-21T14:52:05;23.00;99.90
20035;DHT22;10178;48.034;9.800;2022-08-21T14:54:31;22.90;99.90
20035;DHT22;10178;48.034;9.800;2022-08-21T14:57:07;22.90;99.90
20035;DHT22;10178;48.034;9.800;2022-08-21T14:59:35;22.90;99.90
20035;DHT22;10178;48.034;9.800;2022-08-21T15:02:01;22.90;99.90
20035;DHT22;10178;48.034;9.800;2022-08-21T15:04:29;23.00;99.90
20035;DHT22;10178;48.034;9.800;2022-08-21T15:06:56;23.00;99.90
20035;DHT22;10178;48.034;9.800;2022-08-21T15:09:21;23.10;99.90
20035;DHT22;10178;48.034;9.800;2022-08-21T15:11:47;23.10;99.90
20035;DHT22;10178;48.034;9.800;2022-08-21T15:14:21;23.10;99.90
20035;DHT22;10178;48.034;9.800;2022-08-21T15:16:48;23.20;99.90
20035;DHT22;10178;48.034;9.800;2022-08-21T15:19:14;23.20;99.90
20035;DHT22;10178;48.034;9.800;2022-08-21T15:21:40;23.20;99.90
20035;DHT22;10178;48.034;9.800;2022-08-21T15:24:05;23.30;99.90
20035;DHT22;10178;48.034;9.800;2022-08-21T15:26:31;23.30;99.90
20035;DHT22;10178;48.034;9.800;2022-08-21T15:28:59;23.40;99.90
20035;DHT22;10178;48.034;9.800;2022-08-21T15:31:24;23.40;99.90
20035;DHT22;10178;48.034;9.800;2022-08-21T15:33:50;23.50;99.90
20035;DHT22;10178;48.034;9.800;2022-08-21T15:36:17;23.50;99.90
20035;DHT22;10178;48.034;9.800;2022-08-21T15:38:44;23.60;99.90
20035;DHT22;10178;48.034;9.800;2022-08-21T15:41:10;23.60;99.90
20035;DHT22;10178;48.034;9.800;2022-08-21T15:43:45;23.60;99.90
20035;DHT22;10178;48.034;9.800;2022-08-21T15:46:13;23.70;99.90
20035;DHT22;10178;48.034;9.800;2022-08-21T15:48:40;23.70;99.90
20035;DHT22;10178;48.034;9.800;2022-08-21T15:51:06;23.80;99.90
20035;DHT22;10178;48.034;9.800;2022-08-21T15:53:31;23.80;99.90
20035;DHT22;10178;48.034;9.800;2022-08-21T15:56:00;23.80;99.90
20035;DHT22;10178;48.034;9.800;2022-08-21T15:58:27;23.90;99.90
20035;DHT22;10178;48.034;9.800;2022-08-21T16:00:52;23.90;99.90
20035;DHT22;10178;48.034;9.800;2022-08-21T16:03:19;24.00;99.90
20035;DHT22;10178;48.034;9.800;2022-08-21T16:05:47;24.00;99.90
20035;DHT22;10178;48.034;9.800;2022-08-21T16:08:18;24.00;99.90
20035;DHT22;10178;48.034;9.800;2022-08-21T16:10:44;24.00;99.90
20035;DHT22;10178;48.034;9.800;2022-08-21T16:13:20;24.10;99.90
20035;DHT22;10178;48.034;9.800;2022-08-21T16:15:49;24.10;99.90
20035;DHT22;10178;48.034;9.800;2022-08-21T16:18:15;24.20;99.90
20035;DHT22;10178;48.034;9.800;2022-08-21T16:20:41;24.20;99.90
20035;DHT22;10178;48.034;9.800;2022-08-21T16:23:07;24.20;99.90
20035;DHT22;10178;48.034;9.800;2022-08-21T16:25:36;24.20;99.90
20035;DHT22;10178;48.034;9.800;2022-08-21T16:28:02;24.20;99.90
20035;DHT22;10178;48.034;9.800;2022-08-21T16:30:29;24.40;99.90
20035;DHT22;10178;48.034;9.800;2022-08-21T16:32:55;24.70;99.90
20035;DHT22;10178;48.034;9.800;2022-08-21T16:35:21;24.70;99.90
20035;DHT22;10178;48.034;9.800;2022-08-21T16:37:48;24.60;99.90
20035;DHT22;10178;48.034;9.800;2022-08-21T16:40:14;24.80;99.90
20035;DHT22;10178;48.034;9.800;2022-08-21T16:42:44;24.90;99.90
20035;DHT22;10178;48.034;9.800;2022-08-21T16:45:16;25.00;99.90
20035;DHT22;10178;48.034;9.800;2022-08-21T16:47:44;25.10;99.90
20035;DHT22;10178;48.034;9.800;2022-08-21T16:50:14;25.20;99.90
20035;DHT22;10178;48.034;9.800;2022-08-21T16:52:40;25.20;99.90
20035;DHT22;10178;48.034;9.800;2022-08-21T16:55:06;25.30;99.90
20035;DHT22;10178;48.034;9.800;2022-08-21T16:57:32;25.30;99.90
20035;DHT22;10178;48.034;9.800;2022-08-21T16:59:58;25.30;99.90
20035;DHT22;10178;48.034;9.800;2022-08-21T17:02:34;25.30;99.90
20035;DHT22;10178;48.034;9.800;2022-08-21T17:05:00;25.40;99.90
20035;DHT22;10178;48.034;9.800;2022-08-21T17:07:27;25.40;99.90
20035;DHT22;10178;48.034;9.800;2022-08-21T17:10:10;25.40;99.90
20035;DHT22;10178;48.034;9.800;2022-08-21T17:13:00;25.40;99.90
20035;DHT22;10178;48.034;9.800;2022-08-21T17:15:32;25.40;99.90
20035;DHT22;10178;48.034;9.800;2022-08-21T17:17:59;25.40;99.90
20035;DHT22;10178;48.034;9.800;2022-08-21T17:20:25;25.40;99.90